createdAt,value
2023-03-02T00:02:37.472Z,95719.00
2023-03-02T00:05:24.360Z,95720.56
2023-03-02T00:07:57.503Z,95722.94
2023-03-02T00:10:45.393Z,95718.47
2023-03-02T00:13:26.386Z,95710.03
2023-03-02T00:16:20.486Z,95715.97
2023-03-02T00:19:07.389Z,95718.47
2023-03-02T00:21:41.303Z,95724.41
2023-03-02T00:24:28.391Z,95727.72
2023-03-02T00:27:01.478Z,95716.78
2023-03-02T00:29:48.409Z,95722.72
2023-03-02T00:32:28.481Z,95718.56
2023-03-02T00:35:22.436Z,95711.19
2023-03-02T00:38:16.357Z,95703.91
2023-03-02T00:41:10.401Z,95705.72
2023-03-02T00:43:58.374Z,95701.59
2023-03-02T00:46:39.488Z,95697.22
2023-03-02T00:49:26.393Z,95700.50
2023-03-02T00:51:59.686Z,95693.78
2023-03-02T00:54:46.379Z,95692.84
2023-03-02T00:57:19.527Z,95688.44
2023-03-02T01:00:06.385Z,95690.13
2023-03-02T01:02:44.349Z,95686.78
2023-03-02T01:05:31.422Z,95689.41
2023-03-02T01:08:04.486Z,95683.47
2023-03-02T01:10:53.912Z,95685.00
2023-03-02T01:13:27.472Z,95688.22
2023-03-02T01:16:14.467Z,95682.34
2023-03-02T01:18:47.529Z,95680.50
2023-03-02T01:21:34.384Z,95686.19
2023-03-02T01:24:07.501Z,95681.28
2023-03-02T01:26:54.394Z,95680.34
2023-03-02T01:29:35.415Z,95686.91
2023-03-02T01:32:29.455Z,95675.84
2023-03-02T01:35:16.394Z,95663.97
2023-03-02T01:37:49.611Z,95672.25
2023-03-02T01:40:36.846Z,95667.75
2023-03-02T01:43:19.514Z,95656.03
2023-03-02T01:46:10.437Z,95647.81
2023-03-02T01:49:18.391Z,95647.78
2023-03-02T01:52:05.407Z,95657.56
2023-03-02T01:54:38.521Z,95639.75
2023-03-02T01:57:31.743Z,95642.03
2023-03-02T02:00:19.535Z,95645.38
2023-03-02T02:03:18.432Z,95640.59
2023-03-02T02:06:12.452Z,95643.06
2023-03-02T02:08:45.616Z,95638.69
2023-03-02T02:11:32.434Z,95631.75
2023-03-02T02:14:15.405Z,95624.13
2023-03-02T02:17:09.425Z,95622.47
2023-03-02T02:20:26.649Z,95620.59
2023-03-02T02:23:20.523Z,95625.53
2023-03-02T02:26:44.415Z,95625.44
2023-03-02T02:29:52.407Z,95620.59
2023-03-02T02:32:44.561Z,95624.03
2023-03-02T02:35:36.499Z,95628.97
2023-03-02T02:38:34.507Z,95627.81
2023-03-02T02:41:28.455Z,95615.88
2023-03-02T02:44:09.428Z,95621.72
2023-03-02T02:46:56.413Z,95620.16
2023-03-02T02:49:42.538Z,95616.81
2023-03-02T02:52:32.411Z,95610.09
2023-03-02T02:55:05.616Z,95616.81
2023-03-02T02:57:52.412Z,95608.69
2023-03-02T03:00:28.509Z,95615.38
2023-03-02T03:03:35.447Z,95611.72
2023-03-02T03:06:12.584Z,95627.50
2023-03-02T03:09:05.430Z,95619.31
2023-03-02T03:11:41.561Z,95619.38
2023-03-02T03:14:35.422Z,95614.31
2023-03-02T03:17:19.439Z,95609.88
2023-03-02T03:20:13.428Z,95602.16
2023-03-02T03:23:00.436Z,95606.22
2023-03-02T03:25:35.068Z,95608.66
2023-03-02T03:28:21.518Z,95607.00
2023-03-02T03:30:54.635Z,95608.06
2023-03-02T03:33:41.420Z,95596.53
2023-03-02T03:36:14.567Z,95605.78
2023-03-02T03:39:01.496Z,95598.31
2023-03-02T03:41:34.592Z,95600.75
2023-03-02T03:44:21.415Z,95592.97
2023-03-02T03:46:54.535Z,95595.13
2023-03-02T03:49:44.454Z,95584.88
2023-03-02T03:52:17.522Z,95581.38
2023-03-02T03:55:07.440Z,95578.72
2023-03-02T03:57:47.440Z,95581.38
2023-03-02T04:00:41.431Z,95591.47
2023-03-02T04:03:28.438Z,95587.28
2023-03-02T04:06:08.429Z,95586.34
2023-03-02T04:09:02.480Z,95584.66
2023-03-02T04:11:51.439Z,95575.34
2023-03-02T04:14:26.626Z,95580.06
2023-03-02T04:17:13.429Z,95580.91
2023-03-02T04:19:46.563Z,95583.41
2023-03-02T04:22:33.436Z,95582.56
2023-03-02T04:25:06.566Z,95578.41
2023-03-02T04:27:55.436Z,95587.56
2023-03-02T04:30:33.259Z,95581.47
2023-03-02T04:33:20.468Z,95577.88
2023-03-02T04:36:01.590Z,95570.25
2023-03-02T04:38:55.504Z,95566.69
2023-03-02T04:41:49.447Z,95566.44
2023-03-02T04:44:36.439Z,95564.00
2023-03-02T04:47:09.609Z,95562.53
2023-03-02T04:50:01.454Z,95555.81
2023-03-02T04:52:41.657Z,95556.63
2023-03-02T04:55:37.510Z,95554.75
2023-03-02T04:58:24.432Z,95559.81
2023-03-02T05:01:02.177Z,95557.47
2023-03-02T05:03:48.465Z,95567.63
2023-03-02T05:06:21.942Z,95565.13
2023-03-02T05:09:08.502Z,95563.25
2023-03-02T05:11:48.472Z,95561.47
2023-03-02T05:14:45.778Z,95563.06
2023-03-02T05:17:32.449Z,95566.28
2023-03-02T05:20:07.404Z,95562.00
2023-03-02T05:22:54.478Z,95571.81
2023-03-02T05:25:35.525Z,95577.56
2023-03-02T05:28:30.837Z,95577.81
2023-03-02T05:31:25.465Z,95585.75
2023-03-02T05:34:05.515Z,95583.19
2023-03-02T05:36:59.516Z,95587.25
2023-03-02T05:39:53.543Z,95588.72
2023-03-02T05:42:47.525Z,95589.50
2023-03-02T05:45:45.510Z,95591.41
2023-03-02T05:48:21.612Z,95599.09
2023-03-02T05:51:08.483Z,95597.69
2023-03-02T05:53:41.665Z,95601.84
2023-03-02T05:56:29.516Z,95600.09
2023-03-02T05:59:02.647Z,95600.94
2023-03-02T06:01:49.484Z,95602.78
2023-03-02T06:04:22.631Z,95606.16
2023-03-02T06:07:09.511Z,95610.31
2023-03-02T06:09:42.572Z,95622.06
2023-03-02T06:12:29.511Z,95608.13
2023-03-02T06:15:02.650Z,95617.31
2023-03-02T06:17:49.521Z,95615.94
2023-03-02T06:20:30.483Z,95609.66
2023-03-02T06:23:20.477Z,95605.53
2023-03-02T06:25:53.706Z,95600.69
2023-03-02T06:28:52.037Z,95605.94
2023-03-02T06:31:26.673Z,95600.94
2023-03-02T06:34:13.517Z,95607.94
2023-03-02T06:36:53.530Z,95606.47
2023-03-02T06:39:47.515Z,95602.41
2023-03-02T06:42:34.471Z,95594.13
2023-03-02T06:45:07.661Z,95603.22
2023-03-02T06:47:54.536Z,95598.97
2023-03-02T06:50:28.275Z,95596.38
2023-03-02T06:53:14.595Z,95596.34
2023-03-02T06:55:47.670Z,95590.22
2023-03-02T06:58:34.547Z,95591.44
2023-03-02T07:01:14.560Z,95597.72
2023-03-02T07:04:01.563Z,95602.06
2023-03-02T07:06:34.691Z,95594.72
2023-03-02T07:09:21.522Z,95594.97
2023-03-02T07:11:55.613Z,95591.72
2023-03-02T07:14:43.512Z,95595.25
2023-03-02T07:17:16.640Z,95597.84
2023-03-02T07:20:03.512Z,95593.75
2023-03-02T07:22:43.511Z,95598.19
2023-03-02T07:25:37.513Z,95595.03
2023-03-02T07:28:31.513Z,95588.59
2023-03-02T07:31:18.632Z,95588.09
2023-03-02T07:33:58.541Z,95590.03
2023-03-02T07:36:45.514Z,95583.63
2023-03-02T07:39:18.672Z,95591.66
2023-03-02T07:42:06.532Z,95581.56
2023-03-02T07:44:46.538Z,95588.00
2023-03-02T07:47:40.541Z,95580.06
2023-03-02T07:50:27.513Z,95572.94
2023-03-02T07:53:07.543Z,95570.88
2023-03-02T07:56:01.512Z,95571.44
2023-03-02T07:58:48.547Z,95566.00
2023-03-02T08:01:28.564Z,95562.50
2023-03-02T08:04:16.838Z,95562.34
2023-03-02T08:06:49.658Z,95566.22
2023-03-02T08:09:36.529Z,95563.97
2023-03-02T08:12:16.562Z,95565.97
2023-03-02T08:15:10.538Z,95563.06
2023-03-02T08:17:57.536Z,95560.84
2023-03-02T08:20:31.614Z,95551.09
2023-03-02T08:23:18.541Z,95554.72
2023-03-02T08:25:51.658Z,95549.03
2023-03-02T08:28:38.539Z,95550.94
2023-03-02T08:31:12.763Z,95552.06
2023-03-02T08:33:59.532Z,95548.09
2023-03-02T08:36:32.897Z,95555.16
2023-03-02T08:39:29.131Z,95550.53
2023-03-02T08:42:15.566Z,95547.66
2023-03-02T08:44:48.657Z,95547.16
2023-03-02T08:47:35.526Z,95537.50
2023-03-02T08:50:08.692Z,95543.72
2023-03-02T08:52:55.523Z,95538.28
2023-03-02T08:55:28.700Z,95529.53
2023-03-02T08:58:15.520Z,95529.22
2023-03-02T09:00:48.783Z,95527.22
2023-03-02T09:03:35.516Z,95533.72
2023-03-02T09:06:08.638Z,95515.59
2023-03-02T09:08:55.535Z,95514.34
2023-03-02T09:11:28.627Z,95510.53
2023-03-02T09:14:15.547Z,95516.78
2023-03-02T09:16:55.597Z,95512.00
2023-03-02T09:19:48.580Z,95508.81
2023-03-02T09:22:21.696Z,95514.88
2023-03-02T09:25:09.537Z,95507.28
2023-03-02T09:27:49.566Z,95509.88
2023-03-02T09:30:43.531Z,95508.25
2023-03-02T09:33:30.595Z,95506.53
2023-03-02T09:36:03.655Z,95501.53
2023-03-02T09:38:59.451Z,95491.34
2023-03-02T09:42:12.612Z,95491.34
2023-03-02T09:45:15.564Z,95495.59
2023-03-02T09:48:10.604Z,95488.75
2023-03-02T09:51:01.718Z,95490.44
2023-03-02T09:54:07.568Z,95494.56
2023-03-02T09:56:44.856Z,95495.34
2023-03-02T09:59:51.613Z,95494.38
2023-03-02T10:02:42.654Z,95491.78
2023-03-02T10:05:54.575Z,95492.53
2023-03-02T10:08:44.597Z,95482.31
2023-03-02T10:11:45.703Z,95483.09
2023-03-02T10:14:48.593Z,95484.69
2023-03-02T10:18:09.630Z,95480.38
2023-03-02T10:21:28.606Z,95471.00
2023-03-02T10:24:55.447Z,95466.72
2023-03-02T10:27:48.632Z,95463.31
2023-03-02T10:30:43.772Z,95454.84
2023-03-02T10:33:30.587Z,95451.44
2023-03-02T10:36:03.709Z,95440.38
2023-03-02T10:38:57.624Z,95443.72
2023-03-02T10:41:50.713Z,95441.22
2023-03-02T10:44:32.698Z,95440.41
2023-03-02T10:47:45.617Z,95429.41
2023-03-02T10:50:37.666Z,95437.09
2023-03-02T10:53:32.605Z,95424.44
2023-03-02T10:56:38.598Z,95424.44
2023-03-02T10:59:48.685Z,95423.66
2023-03-02T11:02:36.599Z,95413.56
2023-03-02T11:05:41.616Z,95415.22
2023-03-02T11:08:40.590Z,95417.81
2023-03-02T11:11:30.736Z,95406.84
2023-03-02T11:14:18.007Z,95400.94
2023-03-02T11:17:03.308Z,95390.81
2023-03-02T11:19:45.702Z,95395.88
2023-03-02T11:22:39.623Z,95389.94
2023-03-02T11:25:29.714Z,95386.56
2023-03-02T11:28:21.618Z,95376.41
2023-03-02T11:31:04.827Z,95375.56
2023-03-02T11:34:16.718Z,95373.06
2023-03-02T11:37:07.746Z,95377.31
2023-03-02T11:39:55.950Z,95367.25
2023-03-02T11:42:39.753Z,95365.63
2023-03-02T11:45:33.701Z,95363.06
2023-03-02T11:48:31.628Z,95365.63
2023-03-02T11:51:23.133Z,95362.22
2023-03-02T11:54:08.741Z,95364.75
2023-03-02T11:56:56.663Z,95354.63
2023-03-02T11:59:37.630Z,95352.97
2023-03-02T12:02:25.637Z,95356.38
2023-03-02T12:05:19.711Z,95349.59
2023-03-02T12:08:16.629Z,95345.38
2023-03-02T12:11:25.631Z,95338.59
2023-03-02T12:14:05.619Z,95339.47
2023-03-02T12:17:04.042Z,95327.63
2023-03-02T12:19:51.632Z,95331.00
2023-03-02T12:22:40.232Z,95332.69
2023-03-02T12:25:26.752Z,95327.63
2023-03-02T12:28:03.356Z,95328.47
2023-03-02T12:30:49.675Z,95325.91
2023-03-02T12:33:27.730Z,95319.13
2023-03-02T12:36:21.667Z,95321.69
2023-03-02T12:39:15.668Z,95324.22
2023-03-02T12:42:31.671Z,95318.28
2023-03-02T12:45:35.659Z,95319.94
2023-03-02T12:48:33.675Z,95319.94
2023-03-02T12:51:09.748Z,95314.88
2023-03-02T12:54:07.662Z,95315.69
2023-03-02T12:56:40.770Z,95309.78
2023-03-02T12:59:31.643Z,95302.19
2023-03-02T13:02:38.669Z,95301.38
2023-03-02T13:05:41.677Z,95296.31
2023-03-02T13:08:39.732Z,95289.53
2023-03-02T13:11:37.681Z,95287.84
2023-03-02T13:14:26.805Z,95287.81
2023-03-02T13:17:28.673Z,95286.16
2023-03-02T13:20:02.829Z,95283.59
2023-03-02T13:22:49.693Z,95289.56
2023-03-02T13:25:35.713Z,95282.00
2023-03-02T13:28:41.665Z,95282.81
2023-03-02T13:31:35.712Z,95274.31
2023-03-02T13:34:31.669Z,95279.38
2023-03-02T13:37:05.735Z,95274.31
2023-03-02T13:40:01.739Z,95274.28
2023-03-02T13:42:42.774Z,95270.09
2023-03-02T13:45:36.668Z,95270.09
2023-03-02T13:48:20.761Z,95274.28
2023-03-02T13:51:11.669Z,95263.28
2023-03-02T13:53:57.819Z,95274.28
2023-03-02T13:56:50.647Z,95273.44
2023-03-02T13:59:32.666Z,95260.72
2023-03-02T14:02:39.668Z,95257.34
2023-03-02T14:05:12.888Z,95251.44
2023-03-02T14:08:01.742Z,95244.66
2023-03-02T14:10:35.735Z,95247.22
2023-03-02T14:13:27.708Z,95243.84
2023-03-02T14:16:07.748Z,95237.91
2023-03-02T14:18:57.729Z,95243.00
2023-03-02T14:21:39.727Z,95231.13
2023-03-02T14:24:26.617Z,95229.41
2023-03-02T14:27:06.673Z,95238.72
2023-03-02T14:29:55.982Z,95233.63
2023-03-02T14:32:38.111Z,95238.72
2023-03-02T14:35:31.683Z,95230.22
2023-03-02T14:38:27.740Z,95228.50
2023-03-02T14:41:30.610Z,95222.56
2023-03-02T14:44:18.666Z,95229.34
2023-03-02T14:46:59.723Z,95230.22
2023-03-02T14:49:53.682Z,95229.38
2023-03-02T14:52:47.729Z,95228.50
2023-03-02T14:55:37.162Z,95225.13
2023-03-02T14:58:26.694Z,95227.66
2023-03-02T15:00:59.794Z,95229.34
2023-03-02T15:03:46.650Z,95227.66
2023-03-02T15:06:34.100Z,95236.09
2023-03-02T15:09:20.668Z,95235.22
2023-03-02T15:11:53.784Z,95238.56
2023-03-02T15:14:40.696Z,95238.56
2023-03-02T15:17:20.686Z,95235.16
2023-03-02T15:20:14.677Z,95229.19
2023-03-02T15:23:03.989Z,95230.03
2023-03-02T15:25:38.858Z,95235.06
2023-03-02T15:28:28.001Z,95230.84
2023-03-02T15:31:08.712Z,95229.97
2023-03-02T15:33:58.689Z,95234.16
2023-03-02T15:36:31.772Z,95234.97
2023-03-02T15:39:26.681Z,95236.63
2023-03-02T15:42:20.674Z,95242.50
2023-03-02T15:45:07.749Z,95240.78
2023-03-02T15:47:49.744Z,95240.75
2023-03-02T15:50:43.737Z,95244.91
2023-03-02T15:53:30.695Z,95243.16
2023-03-02T15:56:10.681Z,95245.63
2023-03-02T15:58:57.719Z,95248.09
2023-03-02T16:01:30.785Z,95242.94
2023-03-02T16:04:17.736Z,95248.72
2023-03-02T16:06:57.723Z,95251.16
2023-03-02T16:09:44.719Z,95253.53
2023-03-02T16:12:20.432Z,95248.38
2023-03-02T16:15:06.741Z,95249.97
2023-03-02T16:17:39.895Z,95247.34
2023-03-02T16:20:26.711Z,95252.25
2023-03-02T16:23:01.379Z,95250.47
2023-03-02T16:25:50.712Z,95247.03
2023-03-02T16:28:24.813Z,95246.97
2023-03-02T16:31:14.722Z,95248.59
2023-03-02T16:33:48.862Z,95253.56
2023-03-02T16:36:35.728Z,95251.84
2023-03-02T16:39:09.872Z,95246.69
2023-03-02T16:41:57.725Z,95254.19
2023-03-02T16:44:30.950Z,95249.06
2023-03-02T16:47:17.729Z,95256.56
2023-03-02T16:49:50.814Z,95258.16
2023-03-02T16:52:37.734Z,95263.06
2023-03-02T16:55:21.723Z,95251.19
2023-03-02T16:58:15.742Z,95264.47
2023-03-02T17:01:02.859Z,95267.75
2023-03-02T17:03:35.918Z,95265.88
2023-03-02T17:06:25.759Z,95264.06
2023-03-02T17:08:58.822Z,95273.19
2023-03-02T17:11:45.729Z,95269.63
2023-03-02T17:14:18.841Z,95268.66
2023-03-02T17:17:05.754Z,95267.72
2023-03-02T17:19:39.836Z,95275.16
2023-03-02T17:22:26.745Z,95278.34
2023-03-02T17:25:01.963Z,95279.94
2023-03-02T17:27:49.784Z,95285.72
2023-03-02T17:30:29.770Z,95287.31
2023-03-02T17:33:24.755Z,95287.22
2023-03-02T17:36:13.748Z,95280.31
2023-03-02T17:38:47.862Z,95282.75
2023-03-02T17:41:35.786Z,95287.66
2023-03-02T17:44:16.734Z,95280.00
2023-03-02T17:47:03.733Z,95275.72
2023-03-02T17:49:44.745Z,95279.75
2023-03-02T17:52:38.724Z,95278.84
2023-03-02T17:55:25.749Z,95276.19
2023-03-02T17:57:58.931Z,95279.44
2023-03-02T18:00:46.746Z,95282.69
2023-03-02T18:03:26.810Z,95283.41
2023-03-02T18:06:20.797Z,95284.13
2023-03-02T18:09:07.744Z,95278.94
2023-03-02T18:11:42.321Z,95277.16
2023-03-02T18:14:28.756Z,95283.00
2023-03-02T18:17:02.102Z,95278.69
2023-03-02T18:19:48.812Z,95277.75
2023-03-02T18:22:28.743Z,95278.59
2023-03-02T18:25:22.871Z,95286.09
2023-03-02T18:28:09.752Z,95281.00
2023-03-02T18:30:49.765Z,95278.38
2023-03-02T18:33:36.783Z,95275.78
2023-03-02T18:36:09.893Z,95278.22
2023-03-02T18:39:03.773Z,95279.91
2023-03-02T18:41:57.748Z,95282.28
2023-03-02T18:44:44.757Z,95281.38
2023-03-02T18:47:22.890Z,95285.50
2023-03-02T18:50:10.750Z,95278.59
2023-03-02T18:52:50.755Z,95281.84
2023-03-02T18:55:44.750Z,95278.38
2023-03-02T18:58:32.314Z,95284.97
2023-03-02T19:01:05.961Z,95284.97
2023-03-02T19:03:52.830Z,95288.28
2023-03-02T19:06:25.890Z,95285.75
2023-03-02T19:09:12.789Z,95282.38
2023-03-02T19:11:45.875Z,95278.16
2023-03-02T19:14:32.831Z,95274.00
2023-03-02T19:17:12.764Z,95279.03
2023-03-02T19:19:59.767Z,95276.50
2023-03-02T19:22:33.488Z,95278.13
2023-03-02T19:25:19.789Z,95281.44
2023-03-02T19:27:52.928Z,95278.91
2023-03-02T19:30:40.766Z,95285.47
2023-03-02T19:33:14.872Z,95283.66
2023-03-02T19:36:01.790Z,95287.75
2023-03-02T19:38:38.031Z,95280.91
2023-03-02T19:41:26.777Z,95283.31
2023-03-02T19:44:06.792Z,95281.53
2023-03-02T19:47:00.834Z,95279.81
2023-03-02T19:49:47.775Z,95283.22
2023-03-02T19:52:27.804Z,95278.16
2023-03-02T19:55:22.781Z,95282.25
2023-03-02T19:58:11.790Z,95280.47
2023-03-02T20:00:45.032Z,95276.94
2023-03-02T20:03:31.781Z,95272.53
2023-03-02T20:06:11.772Z,95270.69
2023-03-02T20:09:05.790Z,95278.88
2023-03-02T20:11:53.813Z,95268.66
2023-03-02T20:14:34.344Z,95277.78
2023-03-02T20:17:20.814Z,95276.00
2023-03-02T20:20:02.786Z,95284.25
2023-03-02T20:22:51.798Z,95279.94
2023-03-02T20:25:25.892Z,95276.53
2023-03-02T20:28:13.798Z,95277.22
2023-03-02T20:30:59.983Z,95277.13
2023-03-02T20:33:46.804Z,95274.47
2023-03-02T20:36:36.128Z,95271.03
2023-03-02T20:39:34.946Z,95276.00
2023-03-02T20:42:39.792Z,95266.66
2023-03-02T20:45:26.804Z,95258.22
2023-03-02T20:48:07.783Z,95256.41
2023-03-02T20:51:03.827Z,95253.78
2023-03-02T20:53:53.813Z,95251.13
2023-03-02T20:56:27.982Z,95248.53
2023-03-02T20:59:14.822Z,95244.38
2023-03-02T21:01:54.819Z,95244.25
2023-03-02T21:04:48.848Z,95244.19
2023-03-02T21:07:42.811Z,95241.72
2023-03-02T21:10:34.811Z,95235.88
2023-03-02T21:13:15.812Z,95238.31
2023-03-02T21:16:02.845Z,95234.81
2023-03-02T21:18:35.946Z,95231.44
2023-03-02T21:21:32.534Z,95234.84
2023-03-02T21:24:19.824Z,95226.41
2023-03-02T21:27:07.828Z,95220.53
2023-03-02T21:29:40.908Z,95220.34
2023-03-02T21:32:27.865Z,95221.88
2023-03-02T21:35:02.519Z,95213.28
2023-03-02T21:37:49.898Z,95210.72
2023-03-02T21:40:34.800Z,95204.88
2023-03-02T21:43:28.806Z,95207.25
2023-03-02T21:46:19.951Z,95208.03
2023-03-02T21:48:53.953Z,95213.03
2023-03-02T21:51:43.822Z,95207.88
2023-03-02T21:54:23.809Z,95210.31
2023-03-02T21:57:10.852Z,95213.53
2023-03-02T21:59:50.841Z,95216.81
2023-03-02T22:02:38.985Z,95211.78
2023-03-02T22:05:12.944Z,95216.81
2023-03-02T22:07:59.885Z,95220.06
2023-03-02T22:10:58.823Z,95205.72
2023-03-02T22:13:52.846Z,95215.56
2023-03-02T22:16:42.834Z,95208.72
2023-03-02T22:19:41.810Z,95210.25
2023-03-02T22:22:33.832Z,95211.84
2023-03-02T22:25:06.922Z,95211.78
2023-03-02T22:27:53.834Z,95208.44
2023-03-02T22:30:38.831Z,95207.59
2023-03-02T22:33:38.878Z,95199.94
2023-03-02T22:36:29.830Z,95207.31
2023-03-02T22:39:11.936Z,95208.06
2023-03-02T22:42:05.850Z,95201.31
2023-03-02T22:44:38.992Z,95202.09
2023-03-02T22:47:26.847Z,95196.34
2023-03-02T22:50:28.852Z,95197.13
2023-03-02T22:53:35.882Z,95200.34
2023-03-02T22:56:56.864Z,95193.63
2023-03-02T22:59:50.844Z,95192.78
2023-03-02T23:02:37.847Z,95189.31
2023-03-02T23:05:29.003Z,95187.47
2023-03-02T23:08:29.850Z,95186.53
2023-03-02T23:11:11.847Z,95180.53
2023-03-02T23:13:59.864Z,95182.13
2023-03-02T23:16:41.909Z,95187.13
2023-03-02T23:19:28.850Z,95187.06
2023-03-02T23:22:09.850Z,95185.31
2023-03-02T23:25:03.874Z,95172.72
2023-03-02T23:27:50.856Z,95176.81
2023-03-02T23:30:23.959Z,95179.34
2023-03-02T23:33:10.850Z,95176.81
2023-03-02T23:35:44.005Z,95166.88
2023-03-02T23:38:30.867Z,95172.72
2023-03-02T23:41:03.997Z,95170.94
2023-03-02T23:43:50.852Z,95162.41
2023-03-02T23:46:30.862Z,95158.19
2023-03-02T23:49:17.850Z,95163.22
2023-03-02T23:51:58.882Z,95170.59
2023-03-02T23:54:45.856Z,95168.72
2023-03-02T23:57:25.843Z,95161.00
